sensor_id;sensor_type;location;lat;lon;timestamp;temperature;humidity
24410;DHT22;12543;53.364;-1.504;2022-08-19T00:02:02;18.50;99.90
24410;DHT22;12543;53.364;-1.504;2022-08-19T00:04:33;18.50;99.90
24410;DHT22;12543;53.364;-1.504;2022-08-19T00:07:04;18.40;99.90
24410;DHT22;12543;53.364;-1.504;2022-08-19T00:09:32;18.40;99.90
24410;DHT22;12543;53.364;-1.504;2022-08-19T00:11:59;18.40;99.90
24410;DHT22;12543;53.364;-1.504;2022-08-19T00:14:28;18.40;99.90
24410;DHT22;12543;53.364;-1.504;2022-08-19T00:16:59;18.40;99.90
24410;DHT22;12543;53.364;-1.504;2022-08-19T00:19:26;18.40;99.90
24410;DHT22;12543;53.364;-1.504;2022-08-19T00:21:53;18.40;99.90
24410;DHT22;12543;53.364;-1.504;2022-08-19T00:24:22;18.40;99.90
24410;DHT22;12543;53.364;-1.504;2022-08-19T00:26:50;18.40;99.90
24410;DHT22;12543;53.364;-1.504;2022-08-19T00:29:20;18.40;99.90
24410;DHT22;12543;53.364;-1.504;2022-08-19T00:31:47;18.40;99.90
24410;DHT22;12543;53.364;-1.504;2022-08-19T00:34:16;18.40;99.90
24410;DHT22;12543;53.364;-1.504;2022-08-19T00:36:43;18.30;99.90
24410;DHT22;12543;53.364;-1.504;2022-08-19T00:39:12;18.30;99.90
24410;DHT22;12543;53.364;-1.504;2022-08-19T00:41:41;18.20;99.90
24410;DHT22;12543;53.364;-1.504;2022-08-19T00:44:14;18.10;99.90
24410;DHT22;12543;53.364;-1.504;2022-08-19T00:46:44;18.00;99.90
24410;DHT22;12543;53.364;-1.504;2022-08-19T00:49:46;17.90;99.90
24410;DHT22;12543;53.364;-1.504;2022-08-19T00:52:32;17.80;99.90
24410;DHT22;12543;53.364;-1.504;2022-08-19T00:55:01;17.70;99.90
24410;DHT22;12543;53.364;-1.504;2022-08-19T00:57:34;17.70;99.90
24410;DHT22;12543;53.364;-1.504;2022-08-19T01:00:04;17.60;99.90
24410;DHT22;12543;53.364;-1.504;2022-08-19T01:02:33;17.60;99.90
24410;DHT22;12543;53.364;-1.504;2022-08-19T01:05:06;17.50;99.90
24410;DHT22;12543;53.364;-1.504;2022-08-19T01:07:35;17.50;99.90
24410;DHT22;12543;53.364;-1.504;2022-08-19T01:10:07;17.50;99.90
24410;DHT22;12543;53.364;-1.504;2022-08-19T01:12:35;17.40;99.90
24410;DHT22;12543;53.364;-1.504;2022-08-19T01:15:05;17.40;99.90
24410;DHT22;12543;53.364;-1.504;2022-08-19T01:17:33;17.40;99.90
24410;DHT22;12543;53.364;-1.504;2022-08-19T01:20:00;17.30;99.90
24410;DHT22;12543;53.364;-1.504;2022-08-19T01:22:31;17.30;99.90
24410;DHT22;12543;53.364;-1.504;2022-08-19T01:25:01;17.30;99.90
24410;DHT22;12543;53.364;-1.504;2022-08-19T01:27:44;17.30;99.90
24410;DHT22;12543;53.364;-1.504;2022-08-19T01:30:15;17.20;99.90
24410;DHT22;12543;53.364;-1.504;2022-08-19T01:32:42;17.20;99.90
24410;DHT22;12543;53.364;-1.504;2022-08-19T01:35:11;17.10;99.90
24410;DHT22;12543;53.364;-1.504;2022-08-19T01:40:11;17.10;99.90
24410;DHT22;12543;53.364;-1.504;2022-08-19T01:42:38;17.10;99.90
24410;DHT22;12543;53.364;-1.504;2022-08-19T01:45:06;17.10;99.90
24410;DHT22;12543;53.364;-1.504;2022-08-19T01:47:35;17.00;99.90
24410;DHT22;12543;53.364;-1.504;2022-08-19T01:50:05;17.00;99.90
24410;DHT22;12543;53.364;-1.504;2022-08-19T01:52:35;17.00;99.90
24410;DHT22;12543;53.364;-1.504;2022-08-19T01:55:04;16.90;99.90
24410;DHT22;12543;53.364;-1.504;2022-08-19T01:57:32;16.90;99.90
24410;DHT22;12543;53.364;-1.504;2022-08-19T02:00:00;16.80;99.90
24410;DHT22;12543;53.364;-1.504;2022-08-19T02:02:37;16.80;99.90
24410;DHT22;12543;53.364;-1.504;2022-08-19T02:05:05;16.70;99.90
24410;DHT22;12543;53.364;-1.504;2022-08-19T02:07:38;16.70;99.90
24410;DHT22;12543;53.364;-1.504;2022-08-19T02:10:10;16.60;99.90
24410;DHT22;12543;53.364;-1.504;2022-08-19T02:12:39;16.60;99.90
24410;DHT22;12543;53.364;-1.504;2022-08-19T02:15:07;16.50;99.90
24410;DHT22;12543;53.364;-1.504;2022-08-19T02:17:34;16.50;99.90
24410;DHT22;12543;53.364;-1.504;2022-08-19T02:20:01;16.40;99.90
24410;DHT22;12543;53.364;-1.504;2022-08-19T02:22:28;16.40;99.90
24410;DHT22;12543;53.364;-1.504;2022-08-19T02:24:55;16.40;99.90
24410;DHT22;12543;53.364;-1.504;2022-08-19T02:27:23;16.30;99.90
24410;DHT22;12543;53.364;-1.504;2022-08-19T02:29:50;16.30;99.90
24410;DHT22;12543;53.364;-1.504;2022-08-19T02:32:18;16.30;99.90
24410;DHT22;12543;53.364;-1.504;2022-08-19T02:34:48;16.30;99.90
24410;DHT22;12543;53.364;-1.504;2022-08-19T02:37:15;16.30;99.90
24410;DHT22;12543;53.364;-1.504;2022-08-19T02:40:01;16.20;99.90
24410;DHT22;12543;53.364;-1.504;2022-08-19T02:42:37;16.20;99.90
24410;DHT22;12543;53.364;-1.504;2022-08-19T02:45:05;16.20;99.90
24410;DHT22;12543;53.364;-1.504;2022-08-19T02:47:32;16.10;99.90
24410;DHT22;12543;53.364;-1.504;2022-08-19T02:50:01;16.10;99.90
24410;DHT22;12543;53.364;-1.504;2022-08-19T02:52:29;16.10;99.90
24410;DHT22;12543;53.364;-1.504;2022-08-19T02:54:56;16.10;99.90
24410;DHT22;12543;53.364;-1.504;2022-08-19T02:57:24;16.00;99.90
24410;DHT22;12543;53.364;-1.504;2022-08-19T02:59:51;16.00;99.90
24410;DHT22;12543;53.364;-1.504;2022-08-19T03:02:19;15.90;99.90
24410;DHT22;12543;53.364;-1.504;2022-08-19T03:04:46;15.90;99.90
24410;DHT22;12543;53.364;-1.504;2022-08-19T03:07:15;15.90;99.90
24410;DHT22;12543;53.364;-1.504;2022-08-19T03:09:42;15.90;99.90
24410;DHT22;12543;53.364;-1.504;2022-08-19T03:12:10;15.90;99.90
24410;DHT22;12543;53.364;-1.504;2022-08-19T03:14:37;15.80;99.90
24410;DHT22;12543;53.364;-1.504;2022-08-19T03:17:05;15.80;99.90
24410;DHT22;12543;53.364;-1.504;2022-08-19T03:19:32;15.80;99.90
24410;DHT22;12543;53.364;-1.504;2022-08-19T03:21:59;15.80;99.90
24410;DHT22;12543;53.364;-1.504;2022-08-19T03:24:26;15.80;99.90
24410;DHT22;12543;53.364;-1.504;2022-08-19T03:26:54;15.80;99.90
24410;DHT22;12543;53.364;-1.504;2022-08-19T03:29:27;15.80;99.90
24410;DHT22;12543;53.364;-1.504;2022-08-19T03:32:03;15.80;99.90
24410;DHT22;12543;53.364;-1.504;2022-08-19T03:34:32;15.80;99.90
24410;DHT22;12543;53.364;-1.504;2022-08-19T03:37:06;15.80;99.90
24410;DHT22;12543;53.364;-1.504;2022-08-19T03:39:33;15.80;99.90
24410;DHT22;12543;53.364;-1.504;2022-08-19T03:42:02;15.80;99.90
24410;DHT22;12543;53.364;-1.504;2022-08-19T03:44:49;15.80;99.90
24410;DHT22;12543;53.364;-1.504;2022-08-19T03:47:17;15.80;99.90
24410;DHT22;12543;53.364;-1.504;2022-08-19T03:49:44;15.80;99.90
24410;DHT22;12543;53.364;-1.504;2022-08-19T03:52:11;15.80;99.90
24410;DHT22;12543;53.364;-1.504;2022-08-19T03:54:39;15.80;99.90
24410;DHT22;12543;53.364;-1.504;2022-08-19T03:57:06;15.70;99.90
24410;DHT22;12543;53.364;-1.504;2022-08-19T03:59:36;15.70;99.90
24410;DHT22;12543;53.364;-1.504;2022-08-19T04:02:08;15.60;99.90
24410;DHT22;12543;53.364;-1.504;2022-08-19T04:04:38;15.60;99.90
24410;DHT22;12543;53.364;-1.504;2022-08-19T04:07:06;15.60;99.90
24410;DHT22;12543;53.364;-1.504;2022-08-19T04:09:34;15.60;99.90
24410;DHT22;12543;53.364;-1.504;2022-08-19T04:12:04;15.50;99.90
24410;DHT22;12543;53.364;-1.504;2022-08-19T04:14:32;15.50;99.90
24410;DHT22;12543;53.364;-1.504;2022-08-19T04:17:01;15.50;99.90
24410;DHT22;12543;53.364;-1.504;2022-08-19T04:19:33;15.40;99.90
24410;DHT22;12543;53.364;-1.504;2022-08-19T04:22:01;15.40;99.90
24410;DHT22;12543;53.364;-1.504;2022-08-19T04:24:29;15.40;99.90
24410;DHT22;12543;53.364;-1.504;2022-08-19T04:26:58;15.30;99.90
24410;DHT22;12543;53.364;-1.504;2022-08-19T04:29:25;15.30;99.90
24410;DHT22;12543;53.364;-1.504;2022-08-19T04:31:55;15.30;99.90
24410;DHT22;12543;53.364;-1.504;2022-08-19T04:34:25;15.30;99.90
24410;DHT22;12543;53.364;-1.504;2022-08-19T04:36:54;15.20;99.90
24410;DHT22;12543;53.364;-1.504;2022-08-19T04:39:25;15.20;99.90
24410;DHT22;12543;53.364;-1.504;2022-08-19T04:42:12;15.20;99.90
24410;DHT22;12543;53.364;-1.504;2022-08-19T04:44:58;15.20;99.90
24410;DHT22;12543;53.364;-1.504;2022-08-19T04:47:25;15.10;99.90
24410;DHT22;12543;53.364;-1.504;2022-08-19T04:50:13;15.10;99.90
24410;DHT22;12543;53.364;-1.504;2022-08-19T04:52:40;15.10;99.90
24410;DHT22;12543;53.364;-1.504;2022-08-19T04:55:11;15.00;99.90
24410;DHT22;12543;53.364;-1.504;2022-08-19T04:57:39;15.00;99.90
24410;DHT22;12543;53.364;-1.504;2022-08-19T05:00:10;15.00;99.90
24410;DHT22;12543;53.364;-1.504;2022-08-19T05:02:38;15.00;99.90
24410;DHT22;12543;53.364;-1.504;2022-08-19T05:05:05;15.00;99.90
24410;DHT22;12543;53.364;-1.504;2022-08-19T05:07:33;14.90;99.90
24410;DHT22;12543;53.364;-1.504;2022-08-19T05:10:01;14.90;99.90
24410;DHT22;12543;53.364;-1.504;2022-08-19T05:12:29;14.90;99.90
24410;DHT22;12543;53.364;-1.504;2022-08-19T05:14:57;14.90;99.90
24410;DHT22;12543;53.364;-1.504;2022-08-19T05:17:27;14.90;99.90
24410;DHT22;12543;53.364;-1.504;2022-08-19T05:20:00;14.80;99.90
24410;DHT22;12543;53.364;-1.504;2022-08-19T05:22:47;14.80;99.90
24410;DHT22;12543;53.364;-1.504;2022-08-19T05:25:18;14.80;99.90
24410;DHT22;12543;53.364;-1.504;2022-08-19T05:27:46;14.80;99.90
24410;DHT22;12543;53.364;-1.504;2022-08-19T05:30:14;14.80;99.90
24410;DHT22;12543;53.364;-1.504;2022-08-19T05:32:42;14.70;99.90
24410;DHT22;12543;53.364;-1.504;2022-08-19T05:35:09;14.70;99.90
24410;DHT22;12543;53.364;-1.504;2022-08-19T05:37:38;14.70;99.90
24410;DHT22;12543;53.364;-1.504;2022-08-19T05:40:08;14.70;99.90
24410;DHT22;12543;53.364;-1.504;2022-08-19T05:42:35;14.70;99.90
24410;DHT22;12543;53.364;-1.504;2022-08-19T05:45:02;14.60;99.90
24410;DHT22;12543;53.364;-1.504;2022-08-19T05:47:33;14.60;99.90
24410;DHT22;12543;53.364;-1.504;2022-08-19T05:50:13;14.70;99.90
24410;DHT22;12543;53.364;-1.504;2022-08-19T05:52:40;14.60;99.90
24410;DHT22;12543;53.364;-1.504;2022-08-19T05:55:15;14.70;99.90
24410;DHT22;12543;53.364;-1.504;2022-08-19T05:57:42;14.70;99.90
24410;DHT22;12543;53.364;-1.504;2022-08-19T06:00:10;14.70;99.90
24410;DHT22;12543;53.364;-1.504;2022-08-19T06:02:38;14.70;99.90
24410;DHT22;12543;53.364;-1.504;2022-08-19T06:05:06;14.70;99.90
24410;DHT22;12543;53.364;-1.504;2022-08-19T06:07:36;14.70;99.90
24410;DHT22;12543;53.364;-1.504;2022-08-19T06:10:09;14.70;99.90
24410;DHT22;12543;53.364;-1.504;2022-08-19T06:12:37;14.70;99.90
24410;DHT22;12543;53.364;-1.504;2022-08-19T06:15:10;14.70;99.90
24410;DHT22;12543;53.364;-1.504;2022-08-19T06:17:38;14.70;99.90
24410;DHT22;12543;53.364;-1.504;2022-08-19T06:20:08;14.70;99.90
24410;DHT22;12543;53.364;-1.504;2022-08-19T06:22:42;14.70;99.90
24410;DHT22;12543;53.364;-1.504;2022-08-19T06:25:10;14.80;99.90
24410;DHT22;12543;53.364;-1.504;2022-08-19T06:27:38;14.80;99.90
24410;DHT22;12543;53.364;-1.504;2022-08-19T06:30:24;14.80;99.90
24410;DHT22;12543;53.364;-1.504;2022-08-19T06:32:51;14.80;99.90
24410;DHT22;12543;53.364;-1.504;2022-08-19T06:35:19;14.90;99.90
24410;DHT22;12543;53.364;-1.504;2022-08-19T06:37:46;14.90;99.90
24410;DHT22;12543;53.364;-1.504;2022-08-19T06:40:13;14.90;99.90
24410;DHT22;12543;53.364;-1.504;2022-08-19T06:42:41;14.90;99.90
24410;DHT22;12543;53.364;-1.504;2022-08-19T06:45:20;14.90;99.90
24410;DHT22;12543;53.364;-1.504;2022-08-19T06:48:00;15.00;99.90
24410;DHT22;12543;53.364;-1.504;2022-08-19T06:50:28;15.00;99.90
24410;DHT22;12543;53.364;-1.504;2022-08-19T06:52:56;15.00;99.90
24410;DHT22;12543;53.364;-1.504;2022-08-19T06:55:25;15.10;99.90
24410;DHT22;12543;53.364;-1.504;2022-08-19T06:57:52;15.10;99.90
24410;DHT22;12543;53.364;-1.504;2022-08-19T07:00:20;15.10;99.90
24410;DHT22;12543;53.364;-1.504;2022-08-19T07:02:48;15.20;99.90
24410;DHT22;12543;53.364;-1.504;2022-08-19T07:05:23;15.20;99.90
24410;DHT22;12543;53.364;-1.504;2022-08-19T07:07:50;15.20;99.90
24410;DHT22;12543;53.364;-1.504;2022-08-19T07:10:17;15.30;99.90
24410;DHT22;12543;53.364;-1.504;2022-08-19T07:12:45;15.30;99.90
24410;DHT22;12543;53.364;-1.504;2022-08-19T07:15:14;15.30;99.90
24410;DHT22;12543;53.364;-1.504;2022-08-19T07:17:44;15.40;99.90
24410;DHT22;12543;53.364;-1.504;2022-08-19T07:20:15;15.40;99.90
24410;DHT22;12543;53.364;-1.504;2022-08-19T07:22:44;15.40;99.90
24410;DHT22;12543;53.364;-1.504;2022-08-19T07:25:12;15.40;99.90
24410;DHT22;12543;53.364;-1.504;2022-08-19T07:27:39;15.50;99.90
24410;DHT22;12543;53.364;-1.504;2022-08-19T07:30:08;15.50;99.90
24410;DHT22;12543;53.364;-1.504;2022-08-19T07:32:38;15.50;99.90
24410;DHT22;12543;53.364;-1.504;2022-08-19T07:35:06;15.60;99.90
24410;DHT22;12543;53.364;-1.504;2022-08-19T07:37:34;15.60;99.90
24410;DHT22;12543;53.364;-1.504;2022-08-19T07:40:05;15.60;99.90
24410;DHT22;12543;53.364;-1.504;2022-08-19T07:42:33;15.60;99.90
24410;DHT22;12543;53.364;-1.504;2022-08-19T07:45:00;15.70;99.90
24410;DHT22;12543;53.364;-1.504;2022-08-19T07:47:27;15.70;99.90
24410;DHT22;12543;53.364;-1.504;2022-08-19T07:50:15;15.70;99.90
24410;DHT22;12543;53.364;-1.504;2022-08-19T07:52:42;15.80;99.90
24410;DHT22;12543;53.364;-1.504;2022-08-19T07:55:16;15.80;99.90
24410;DHT22;12543;53.364;-1.504;2022-08-19T07:58:04;15.90;99.90
24410;DHT22;12543;53.364;-1.504;2022-08-19T08:00:32;15.90;99.90
24410;DHT22;12543;53.364;-1.504;2022-08-19T08:02:59;16.00;99.90
24410;DHT22;12543;53.364;-1.504;2022-08-19T08:05:26;16.00;99.90
24410;DHT22;12543;53.364;-1.504;2022-08-19T08:08:12;16.00;99.90
24410;DHT22;12543;53.364;-1.504;2022-08-19T08:10:58;16.10;99.90
24410;DHT22;12543;53.364;-1.504;2022-08-19T08:13:26;16.10;99.90
24410;DHT22;12543;53.364;-1.504;2022-08-19T08:15:55;16.10;99.90
24410;DHT22;12543;53.364;-1.504;2022-08-19T08:18:23;16.10;99.90
24410;DHT22;12543;53.364;-1.504;2022-08-19T08:20:54;16.20;99.90
24410;DHT22;12543;53.364;-1.504;2022-08-19T08:23:22;16.20;99.90
24410;DHT22;12543;53.364;-1.504;2022-08-19T08:25:49;16.20;99.90
24410;DHT22;12543;53.364;-1.504;2022-08-19T08:28:17;16.20;99.90
24410;DHT22;12543;53.364;-1.504;2022-08-19T08:30:46;16.30;99.90
24410;DHT22;12543;53.364;-1.504;2022-08-19T08:33:20;16.30;99.90
24410;DHT22;12543;53.364;-1.504;2022-08-19T08:36:08;16.30;99.90
24410;DHT22;12543;53.364;-1.504;2022-08-19T08:38:36;16.40;99.90
24410;DHT22;12543;53.364;-1.504;2022-08-19T08:43:55;16.50;99.90
24410;DHT22;12543;53.364;-1.504;2022-08-19T08:46:35;16.50;99.90
24410;DHT22;12543;53.364;-1.504;2022-08-19T08:49:23;16.60;99.90
24410;DHT22;12543;53.364;-1.504;2022-08-19T08:52:06;16.70;99.90
24410;DHT22;12543;53.364;-1.504;2022-08-19T08:54:41;16.80;99.90
24410;DHT22;12543;53.364;-1.504;2022-08-19T08:57:43;16.90;99.90
24410;DHT22;12543;53.364;-1.504;2022-08-19T09:00:34;17.00;99.90
24410;DHT22;12543;53.364;-1.504;2022-08-19T09:03:03;17.20;99.90
24410;DHT22;12543;53.364;-1.504;2022-08-19T09:05:56;17.30;99.90
24410;DHT22;12543;53.364;-1.504;2022-08-19T09:10:56;17.40;99.90
24410;DHT22;12543;53.364;-1.504;2022-08-19T09:16:25;17.50;99.90
24410;DHT22;12543;53.364;-1.504;2022-08-19T09:18:55;17.50;99.90
24410;DHT22;12543;53.364;-1.504;2022-08-19T09:21:25;17.60;99.90
24410;DHT22;12543;53.364;-1.504;2022-08-19T09:23:59;17.70;99.90
24410;DHT22;12543;53.364;-1.504;2022-08-19T09:26:29;17.90;99.90
24410;DHT22;12543;53.364;-1.504;2022-08-19T09:29:18;18.00;99.90
24410;DHT22;12543;53.364;-1.504;2022-08-19T09:31:48;18.20;99.90
24410;DHT22;12543;53.364;-1.504;2022-08-19T09:34:16;18.70;99.90
24410;DHT22;12543;53.364;-1.504;2022-08-19T09:36:48;19.40;99.90
24410;DHT22;12543;53.364;-1.504;2022-08-19T09:39:21;20.10;99.90
24410;DHT22;12543;53.364;-1.504;2022-08-19T09:41:48;20.80;99.90
24410;DHT22;12543;53.364;-1.504;2022-08-19T09:44:17;21.20;99.90
24410;DHT22;12543;53.364;-1.504;2022-08-19T09:46:45;21.40;99.90
24410;DHT22;12543;53.364;-1.504;2022-08-19T09:49:15;21.40;99.90
24410;DHT22;12543;53.364;-1.504;2022-08-19T09:51:45;21.50;99.90
24410;DHT22;12543;53.364;-1.504;2022-08-19T09:54:18;21.70;99.90
24410;DHT22;12543;53.364;-1.504;2022-08-19T09:56:52;22.10;99.90
24410;DHT22;12543;53.364;-1.504;2022-08-19T09:59:19;22.50;99.90
24410;DHT22;12543;53.364;-1.504;2022-08-19T10:01:47;22.70;99.90
24410;DHT22;12543;53.364;-1.504;2022-08-19T10:04:15;22.80;99.90
24410;DHT22;12543;53.364;-1.504;2022-08-19T10:06:49;23.00;99.90
24410;DHT22;12543;53.364;-1.504;2022-08-19T10:09:20;23.20;99.90
24410;DHT22;12543;53.364;-1.504;2022-08-19T10:12:02;23.30;99.90
24410;DHT22;12543;53.364;-1.504;2022-08-19T10:14:31;23.70;99.90
24410;DHT22;12543;53.364;-1.504;2022-08-19T10:17:01;24.30;99.90
24410;DHT22;12543;53.364;-1.504;2022-08-19T10:19:44;24.90;99.90
24410;DHT22;12543;53.364;-1.504;2022-08-19T10:22:22;25.30;99.90
24410;DHT22;12543;53.364;-1.504;2022-08-19T10:24:52;25.70;99.90
24410;DHT22;12543;53.364;-1.504;2022-08-19T10:27:19;26.00;99.90
24410;DHT22;12543;53.364;-1.504;2022-08-19T10:29:46;26.30;99.90
24410;DHT22;12543;53.364;-1.504;2022-08-19T10:32:14;26.70;99.90
24410;DHT22;12543;53.364;-1.504;2022-08-19T10:34:42;27.00;99.90
24410;DHT22;12543;53.364;-1.504;2022-08-19T10:37:15;27.40;99.90
24410;DHT22;12543;53.364;-1.504;2022-08-19T10:39:54;27.50;99.90
24410;DHT22;12543;53.364;-1.504;2022-08-19T10:42:22;27.40;99.90
24410;DHT22;12543;53.364;-1.504;2022-08-19T10:44:49;27.30;99.90
24410;DHT22;12543;53.364;-1.504;2022-08-19T10:47:18;27.40;99.90
24410;DHT22;12543;53.364;-1.504;2022-08-19T10:49:53;27.50;99.90
24410;DHT22;12543;53.364;-1.504;2022-08-19T10:52:40;27.40;99.90
24410;DHT22;12543;53.364;-1.504;2022-08-19T10:55:17;27.30;99.90
24410;DHT22;12543;53.364;-1.504;2022-08-19T10:58:03;27.30;99.90
24410;DHT22;12543;53.364;-1.504;2022-08-19T11:00:31;27.30;99.90
24410;DHT22;12543;53.364;-1.504;2022-08-19T11:02:58;27.20;99.90
24410;DHT22;12543;53.364;-1.504;2022-08-19T11:05:25;26.90;99.90
24410;DHT22;12543;53.364;-1.504;2022-08-19T11:07:52;26.60;99.90
24410;DHT22;12543;53.364;-1.504;2022-08-19T11:10:19;26.30;99.90
24410;DHT22;12543;53.364;-1.504;2022-08-19T11:12:48;26.00;99.90
24410;DHT22;12543;53.364;-1.504;2022-08-19T11:15:15;25.90;99.90
24410;DHT22;12543;53.364;-1.504;2022-08-19T11:17:43;25.90;99.90
24410;DHT22;12543;53.364;-1.504;2022-08-19T11:20:12;26.10;99.90
24410;DHT22;12543;53.364;-1.504;2022-08-19T11:22:40;26.30;99.90
24410;DHT22;12543;53.364;-1.504;2022-08-19T11:25:09;26.70;99.90
24410;DHT22;12543;53.364;-1.504;2022-08-19T11:27:42;27.10;99.90
24410;DHT22;12543;53.364;-1.504;2022-08-19T11:30:12;27.30;99.90
24410;DHT22;12543;53.364;-1.504;2022-08-19T11:32:40;27.20;99.90
24410;DHT22;12543;53.364;-1.504;2022-08-19T11:35:12;27.00;99.90
24410;DHT22;12543;53.364;-1.504;2022-08-19T11:37:40;26.90;99.90
24410;DHT22;12543;53.364;-1.504;2022-08-19T11:40:07;27.10;99.90
24410;DHT22;12543;53.364;-1.504;2022-08-19T11:42:35;27.50;99.90
24410;DHT22;12543;53.364;-1.504;2022-08-19T11:45:21;28.00;99.90
24410;DHT22;12543;53.364;-1.504;2022-08-19T11:47:48;28.60;99.90
24410;DHT22;12543;53.364;-1.504;2022-08-19T11:50:16;28.90;99.90
24410;DHT22;12543;53.364;-1.504;2022-08-19T11:52:43;29.40;99.90
24410;DHT22;12543;53.364;-1.504;2022-08-19T11:55:13;29.80;99.90
24410;DHT22;12543;53.364;-1.504;2022-08-19T11:57:40;30.00;99.90
24410;DHT22;12543;53.364;-1.504;2022-08-19T12:00:08;29.90;99.90
24410;DHT22;12543;53.364;-1.504;2022-08-19T12:02:37;29.70;99.90
24410;DHT22;12543;53.364;-1.504;2022-08-19T12:05:05;29.40;99.90
24410;DHT22;12543;53.364;-1.504;2022-08-19T12:07:38;29.20;99.90
24410;DHT22;12543;53.364;-1.504;2022-08-19T12:10:08;29.00;99.90
24410;DHT22;12543;53.364;-1.504;2022-08-19T12:12:37;28.80;99.90
24410;DHT22;12543;53.364;-1.504;2022-08-19T12:15:10;28.50;99.90
24410;DHT22;12543;53.364;-1.504;2022-08-19T12:17:38;28.20;99.90
24410;DHT22;12543;53.364;-1.504;2022-08-19T12:20:05;27.80;99.90
24410;DHT22;12543;53.364;-1.504;2022-08-19T12:22:35;27.40;99.90
24410;DHT22;12543;53.364;-1.504;2022-08-19T12:25:03;27.10;99.90
24410;DHT22;12543;53.364;-1.504;2022-08-19T12:27:31;26.80;99.90
24410;DHT22;12543;53.364;-1.504;2022-08-19T12:30:09;26.40;99.90
24410;DHT22;12543;53.364;-1.504;2022-08-19T12:32:37;26.00;99.90
24410;DHT22;12543;53.364;-1.504;2022-08-19T12:35:06;25.70;99.90
24410;DHT22;12543;53.364;-1.504;2022-08-19T12:37:33;25.40;99.90
24410;DHT22;12543;53.364;-1.504;2022-08-19T12:40:00;25.10;99.90
24410;DHT22;12543;53.364;-1.504;2022-08-19T12:42:28;24.80;99.90
24410;DHT22;12543;53.364;-1.504;2022-08-19T12:44:56;24.50;99.90
24410;DHT22;12543;53.364;-1.504;2022-08-19T12:47:24;24.30;99.90
24410;DHT22;12543;53.364;-1.504;2022-08-19T12:49:53;24.20;99.90
24410;DHT22;12543;53.364;-1.504;2022-08-19T12:52:23;24.20;99.90
24410;DHT22;12543;53.364;-1.504;2022-08-19T12:54:53;24.30;99.90
24410;DHT22;12543;53.364;-1.504;2022-08-19T12:57:23;24.50;99.90
24410;DHT22;12543;53.364;-1.504;2022-08-19T12:59:59;24.70;99.90
24410;DHT22;12543;53.364;-1.504;2022-08-19T13:02:26;25.00;99.90
24410;DHT22;12543;53.364;-1.504;2022-08-19T13:04:53;25.00;99.90
24410;DHT22;12543;53.364;-1.504;2022-08-19T13:07:20;24.90;99.90
24410;DHT22;12543;53.364;-1.504;2022-08-19T13:09:51;25.00;99.90
24410;DHT22;12543;53.364;-1.504;2022-08-19T13:12:18;25.00;99.90
24410;DHT22;12543;53.364;-1.504;2022-08-19T13:14:50;25.10;99.90
24410;DHT22;12543;53.364;-1.504;2022-08-19T13:17:19;25.10;99.90
24410;DHT22;12543;53.364;-1.504;2022-08-19T13:19:46;25.10;99.90
24410;DHT22;12543;53.364;-1.504;2022-08-19T13:22:13;25.10;99.90
24410;DHT22;12543;53.364;-1.504;2022-08-19T13:24:41;25.00;99.90
24410;DHT22;12543;53.364;-1.504;2022-08-19T13:27:13;24.90;99.90
24410;DHT22;12543;53.364;-1.504;2022-08-19T13:29:41;25.00;99.90
24410;DHT22;12543;53.364;-1.504;2022-08-19T13:32:28;25.00;99.90
24410;DHT22;12543;53.364;-1.504;2022-08-19T13:35:15;25.00;99.90
24410;DHT22;12543;53.364;-1.504;2022-08-19T13:37:43;25.10;99.90
24410;DHT22;12543;53.364;-1.504;2022-08-19T13:40:16;25.20;99.90
24410;DHT22;12543;53.364;-1.504;2022-08-19T13:42:47;25.30;99.90
24410;DHT22;12543;53.364;-1.504;2022-08-19T13:45:17;25.40;99.90
24410;DHT22;12543;53.364;-1.504;2022-08-19T13:47:49;25.30;99.90
24410;DHT22;12543;53.364;-1.504;2022-08-19T13:50:26;25.20;99.90
24410;DHT22;12543;53.364;-1.504;2022-08-19T13:52:55;25.10;99.90
24410;DHT22;12543;53.364;-1.504;2022-08-19T13:55:23;25.00;99.90
24410;DHT22;12543;53.364;-1.504;2022-08-19T13:57:53;24.90;99.90
24410;DHT22;12543;53.364;-1.504;2022-08-19T14:00:22;24.80;99.90
24410;DHT22;12543;53.364;-1.504;2022-08-19T14:02:53;24.70;99.90
24410;DHT22;12543;53.364;-1.504;2022-08-19T14:05:20;24.50;99.90
24410;DHT22;12543;53.364;-1.504;2022-08-19T14:07:47;24.50;99.90
24410;DHT22;12543;53.364;-1.504;2022-08-19T14:10:15;24.30;99.90
24410;DHT22;12543;53.364;-1.504;2022-08-19T14:12:43;24.20;99.90
24410;DHT22;12543;53.364;-1.504;2022-08-19T14:15:11;24.00;99.90
24410;DHT22;12543;53.364;-1.504;2022-08-19T14:17:43;23.90;99.90
24410;DHT22;12543;53.364;-1.504;2022-08-19T14:20:12;23.80;99.90
24410;DHT22;12543;53.364;-1.504;2022-08-19T14:22:45;23.60;99.90
24410;DHT22;12543;53.364;-1.504;2022-08-19T14:25:19;23.50;99.90
24410;DHT22;12543;53.364;-1.504;2022-08-19T14:27:47;23.40;99.90
24410;DHT22;12543;53.364;-1.504;2022-08-19T14:30:18;23.20;99.90
24410;DHT22;12543;53.364;-1.504;2022-08-19T14:32:46;23.10;99.90
24410;DHT22;12543;53.364;-1.504;2022-08-19T14:35:14;22.90;99.90
24410;DHT22;12543;53.364;-1.504;2022-08-19T14:37:42;22.80;99.90
24410;DHT22;12543;53.364;-1.504;2022-08-19T14:40:14;22.80;99.90
24410;DHT22;12543;53.364;-1.504;2022-08-19T14:42:42;22.70;99.90
24410;DHT22;12543;53.364;-1.504;2022-08-19T14:45:11;22.70;99.90
24410;DHT22;12543;53.364;-1.504;2022-08-19T14:47:39;22.60;99.90
24410;DHT22;12543;53.364;-1.504;2022-08-19T14:50:11;22.60;99.90
24410;DHT22;12543;53.364;-1.504;2022-08-19T14:52:48;22.50;99.90
24410;DHT22;12543;53.364;-1.504;2022-08-19T14:55:16;22.50;99.90
24410;DHT22;12543;53.364;-1.504;2022-08-19T14:57:44;22.50;99.90
24410;DHT22;12543;53.364;-1.504;2022-08-19T15:00:12;22.40;99.90
24410;DHT22;12543;53.364;-1.504;2022-08-19T15:02:41;22.40;99.90
24410;DHT22;12543;53.364;-1.504;2022-08-19T15:05:08;22.40;99.90
24410;DHT22;12543;53.364;-1.504;2022-08-19T15:07:36;22.40;99.90
24410;DHT22;12543;53.364;-1.504;2022-08-19T15:10:05;22.40;99.90
24410;DHT22;12543;53.364;-1.504;2022-08-19T15:12:37;22.40;99.90
24410;DHT22;12543;53.364;-1.504;2022-08-19T15:15:11;22.30;99.90
24410;DHT22;12543;53.364;-1.504;2022-08-19T15:17:43;22.30;99.90
24410;DHT22;12543;53.364;-1.504;2022-08-19T15:20:14;22.30;99.90
24410;DHT22;12543;53.364;-1.504;2022-08-19T15:22:41;22.30;99.90
24410;DHT22;12543;53.364;-1.504;2022-08-19T15:25:10;22.20;99.90
24410;DHT22;12543;53.364;-1.504;2022-08-19T15:27:40;22.20;99.90
24410;DHT22;12543;53.364;-1.504;2022-08-19T15:30:09;22.20;99.90
24410;DHT22;12543;53.364;-1.504;2022-08-19T15:32:38;22.10;99.90
24410;DHT22;12543;53.364;-1.504;2022-08-19T15:35:06;22.00;99.90
24410;DHT22;12543;53.364;-1.504;2022-08-19T15:37:34;21.90;99.90
24410;DHT22;12543;53.364;-1.504;2022-08-19T15:40:04;21.90;99.90
24410;DHT22;12543;53.364;-1.504;2022-08-19T15:42:32;21.80;99.90
24410;DHT22;12543;53.364;-1.504;2022-08-19T15:45:01;21.70;99.90
24410;DHT22;12543;53.364;-1.504;2022-08-19T15:47:29;21.70;99.90